createdAt,value
2023-01-15T00:04:14.383Z,94858.97
2023-01-15T00:19:15.930Z,94825.63
2023-01-15T00:34:17.388Z,94815.97
2023-01-15T00:49:19.488Z,94815.66
2023-01-15T01:04:20.881Z,94792.63
2023-01-15T01:19:22.472Z,94783.66
2023-01-15T01:34:23.940Z,94772.94
2023-01-15T01:49:25.368Z,94752.81
2023-01-15T02:04:26.757Z,94722.72
2023-01-15T02:19:28.164Z,94676.13
2023-01-15T02:34:29.649Z,94686.56
2023-01-15T02:49:33.024Z,94681.72
2023-01-15T03:04:39.263Z,94683.38
2023-01-15T03:19:42.647Z,94666.69
2023-01-15T03:34:48.860Z,94663.47
2023-01-15T03:49:53.163Z,94642.59
2023-01-15T04:05:20.409Z,94651.81
2023-01-15T04:20:23.091Z,94631.34
2023-01-15T04:35:24.664Z,94604.22
2023-01-15T04:50:26.104Z,94562.00
2023-01-15T05:05:27.429Z,94558.44
2023-01-15T05:20:28.847Z,94574.97
2023-01-15T05:35:30.169Z,94572.34
2023-01-15T05:50:31.672Z,94663.06
2023-01-15T06:05:33.117Z,94671.19
2023-01-15T06:20:34.546Z,94697.91
2023-01-15T06:35:35.877Z,94710.59
2023-01-15T06:50:37.210Z,94738.97
2023-01-15T07:05:39.073Z,94787.38
2023-01-15T07:20:40.514Z,94804.63
2023-01-15T07:35:42.390Z,94846.28
2023-01-15T07:50:43.783Z,94901.81
2023-01-15T08:05:45.187Z,94907.63
2023-01-15T08:20:47.356Z,94939.38
2023-01-15T08:35:48.855Z,94975.75
2023-01-15T08:50:50.886Z,94984.19
2023-01-15T09:05:52.252Z,95028.13
2023-01-15T09:20:53.701Z,95026.63
2023-01-15T09:35:55.158Z,95052.50
2023-01-15T09:50:56.944Z,95092.38
2023-01-15T12:04:49.050Z,95218.94
2023-01-15T12:19:50.480Z,95230.66
2023-01-15T12:34:51.911Z,95251.31
2023-01-15T12:49:53.403Z,95230.44
2023-01-15T13:04:54.852Z,95254.72
2023-01-15T13:19:57.520Z,95285.13
2023-01-15T13:34:59.933Z,95310.31
2023-01-15T13:50:01.404Z,95327.09
2023-01-15T14:05:03.473Z,95358.22
2023-01-15T14:20:05.026Z,95365.13
2023-01-15T14:35:06.438Z,95352.31
2023-01-15T14:50:07.767Z,95359.41
2023-01-15T15:05:10.887Z,95362.53
2023-01-15T15:20:13.228Z,95362.19
2023-01-15T15:35:14.648Z,95364.63
2023-01-15T15:50:16.056Z,95369.75
2023-01-15T16:05:17.394Z,95364.44
2023-01-15T16:20:18.840Z,95340.66
2023-01-15T16:35:20.277Z,95328.72
2023-01-15T16:50:21.625Z,95333.75
2023-01-15T17:05:23.087Z,95309.31
2023-01-15T17:20:27.708Z,95318.16
2023-01-15T17:35:29.145Z,95302.13
2023-01-15T17:50:30.568Z,95288.03
2023-01-15T18:05:35.187Z,95277.03
2023-01-15T18:20:36.682Z,95278.31
2023-01-15T18:35:38.163Z,95277.50
2023-01-15T18:50:39.558Z,95259.81
2023-01-15T19:05:40.917Z,95266.38
2023-01-15T19:20:42.258Z,95255.94
2023-01-15T19:35:43.688Z,95238.72
2023-01-15T19:50:45.201Z,95215.53
2023-01-15T20:05:47.147Z,95203.88
2023-01-15T20:20:49.263Z,95193.44
2023-01-15T20:35:52.977Z,95188.06
2023-01-15T20:51:03.309Z,95178.97
2023-01-15T21:06:05.198Z,95169.09
2023-01-15T21:21:06.659Z,95135.22
2023-01-15T21:36:08.075Z,95115.22
2023-01-15T21:51:09.476Z,95093.66
2023-01-15T22:06:10.969Z,95071.63
2023-01-15T22:21:15.618Z,95058.28
2023-01-15T22:36:17.119Z,95037.34
2023-01-15T22:51:18.522Z,95021.38
2023-01-15T23:06:20.411Z,94998.66
2023-01-15T23:21:21.776Z,94970.59
2023-01-15T23:36:23.220Z,94933.00
2023-01-15T23:51:24.551Z,94926.88
